createdAt,value
2023-08-30T00:02:28.085Z,83.25
2023-08-30T00:07:32.211Z,83.19
2023-08-30T00:12:36.412Z,82.84
2023-08-30T00:17:41.103Z,82.24
2023-08-30T00:22:45.034Z,82.29
2023-08-30T00:27:49.156Z,82.07
2023-08-30T00:32:53.118Z,81.52
2023-08-30T00:37:57.162Z,81.10
2023-08-30T00:43:01.514Z,80.24
2023-08-30T00:48:06.781Z,80.26
2023-08-30T00:53:13.752Z,79.44
2023-08-30T00:58:17.876Z,79.11
2023-08-30T01:03:23.599Z,78.99
2023-08-30T01:08:28.761Z,78.87
2023-08-30T01:13:39.914Z,78.49
2023-08-30T01:18:45.049Z,77.76
2023-08-30T01:24:02.296Z,77.66
2023-08-30T01:29:07.526Z,77.28
2023-08-30T01:34:11.938Z,76.72
2023-08-30T01:39:17.994Z,76.50
2023-08-30T01:44:22.681Z,76.38
2023-08-30T01:49:34.186Z,75.67
2023-08-30T01:54:39.733Z,75.46
2023-08-30T01:59:43.664Z,75.27
2023-08-30T02:04:48.613Z,75.13
2023-08-30T02:10:03.321Z,74.84
2023-08-30T02:15:10.873Z,74.38
2023-08-30T02:20:14.955Z,73.98
2023-08-30T02:25:19.124Z,73.76
2023-08-30T02:30:24.608Z,73.70
2023-08-30T02:35:30.933Z,73.17
2023-08-30T02:40:34.846Z,73.12
2023-08-30T02:45:39.030Z,73.05
2023-08-30T02:50:43.239Z,72.57
2023-08-30T02:55:52.332Z,72.11
2023-08-30T03:00:56.277Z,72.02
2023-08-30T03:06:00.471Z,71.93
2023-08-30T03:11:15.682Z,71.79
2023-08-30T03:16:24.890Z,71.91
2023-08-30T03:21:29.985Z,72.25
2023-08-30T03:26:35.316Z,72.58
2023-08-30T03:31:40.323Z,72.89
2023-08-30T03:36:46.051Z,71.56
2023-08-30T03:41:52.176Z,71.18
2023-08-30T03:46:57.941Z,70.40
2023-08-30T03:52:02.363Z,69.26
2023-08-30T03:57:06.601Z,68.49
2023-08-30T04:02:10.788Z,67.64
2023-08-30T04:07:15.791Z,67.53
2023-08-30T04:12:19.917Z,66.61
2023-08-30T04:17:25.717Z,66.48
2023-08-30T04:22:30.807Z,66.17
2023-08-30T04:27:34.832Z,66.10
2023-08-30T04:32:38.930Z,66.40
2023-08-30T04:37:44.748Z,65.85
2023-08-30T04:42:48.702Z,65.15
2023-08-30T04:47:52.937Z,65.05
2023-08-30T04:52:58.157Z,65.07
2023-08-30T04:58:02.501Z,64.72
2023-08-30T05:03:11.252Z,64.61
2023-08-30T05:08:15.484Z,64.47
2023-08-30T05:13:19.768Z,64.30
2023-08-30T05:18:23.622Z,63.88
2023-08-30T05:23:27.686Z,63.33
2023-08-30T05:28:32.489Z,63.91
2023-08-30T05:33:39.305Z,63.62
2023-08-30T05:39:02.110Z,63.18
2023-08-30T05:44:21.390Z,63.20
2023-08-30T05:49:25.344Z,63.67
2023-08-30T05:54:31.474Z,63.61
2023-08-30T05:59:36.861Z,63.66
2023-08-30T06:04:41.028Z,64.75
2023-08-30T06:09:46.256Z,64.62
2023-08-30T06:14:54.170Z,64.93
2023-08-30T06:19:58.135Z,64.94
2023-08-30T06:25:02.408Z,65.02
2023-08-30T06:30:07.846Z,64.94
2023-08-30T06:35:11.961Z,64.63
2023-08-30T06:40:16.194Z,64.43
2023-08-30T06:45:21.315Z,63.97
2023-08-30T06:50:25.158Z,64.13
2023-08-30T06:55:29.419Z,63.76
2023-08-30T07:00:33.643Z,64.12
2023-08-30T07:05:39.419Z,63.71
2023-08-30T07:10:43.719Z,62.75
2023-08-30T07:15:48.507Z,61.13
2023-08-30T07:20:55.771Z,60.93
2023-08-30T07:26:00.152Z,59.48
2023-08-30T07:31:05.603Z,57.57
2023-08-30T07:36:13.659Z,57.64
2023-08-30T07:41:18.362Z,57.50
2023-08-30T07:46:22.421Z,57.18
2023-08-30T07:51:26.417Z,57.10
2023-08-30T07:56:31.193Z,56.20
2023-08-30T08:01:35.105Z,54.71
2023-08-30T08:06:40.983Z,56.08
2023-08-30T08:11:45.626Z,53.66
2023-08-30T08:16:49.596Z,48.92
2023-08-30T08:21:55.659Z,47.71
2023-08-30T08:26:59.917Z,46.18
2023-08-30T08:32:04.426Z,46.58
2023-08-30T08:37:09.344Z,48.94
2023-08-30T08:42:14.419Z,52.09
2023-08-30T08:47:22.337Z,53.59
2023-08-30T08:52:33.045Z,54.57
2023-08-30T08:57:44.376Z,54.77
2023-08-30T09:02:48.854Z,54.49
2023-08-30T09:07:55.630Z,55.16
2023-08-30T09:12:59.646Z,54.88
2023-08-30T09:18:03.927Z,54.86
2023-08-30T09:23:20.141Z,55.60
2023-08-30T09:28:24.642Z,55.85
2023-08-30T09:33:35.640Z,55.40
2023-08-30T09:38:39.588Z,54.02
2023-08-30T09:43:49.500Z,55.54
2023-08-30T09:48:57.684Z,54.91
2023-08-30T09:54:08.825Z,51.20
2023-08-30T09:59:17.528Z,49.06
2023-08-30T10:04:22.924Z,50.54
2023-08-30T10:09:27.488Z,52.55
2023-08-30T10:14:31.734Z,54.15
2023-08-30T10:19:36.595Z,55.59
2023-08-30T10:25:02.095Z,55.93
2023-08-30T10:30:11.672Z,56.00
2023-08-30T10:35:17.610Z,55.77
2023-08-30T10:40:24.928Z,56.31
2023-08-30T10:45:29.164Z,57.00
2023-08-30T10:50:35.243Z,57.53
2023-08-30T10:55:39.249Z,57.88
2023-08-30T11:00:46.701Z,58.18
2023-08-30T11:05:51.635Z,57.84
2023-08-30T11:11:06.957Z,57.59
2023-08-30T11:16:11.218Z,57.75
2023-08-30T11:21:15.089Z,58.38
2023-08-30T11:26:19.168Z,58.98
2023-08-30T11:31:30.026Z,59.04
2023-08-30T11:36:37.302Z,58.89
2023-08-30T11:41:41.915Z,59.01
2023-08-30T11:46:46.284Z,59.59
2023-08-30T11:51:50.462Z,59.67
2023-08-30T11:56:56.977Z,60.08
2023-08-30T12:02:01.080Z,60.50
2023-08-30T12:07:06.529Z,60.76
2023-08-30T12:12:13.936Z,61.29
2023-08-30T12:17:17.906Z,61.66
2023-08-30T12:22:22.078Z,62.14
2023-08-30T12:27:25.945Z,61.83
2023-08-30T12:32:30.171Z,62.02
2023-08-30T12:37:34.304Z,62.37
2023-08-30T12:42:39.052Z,62.79
2023-08-30T12:47:43.500Z,62.77
2023-08-30T12:52:47.435Z,62.95
2023-08-30T12:57:51.819Z,63.13
2023-08-30T13:02:56.343Z,63.64
2023-08-30T13:08:04.432Z,63.91
2023-08-30T13:13:08.757Z,64.47
2023-08-30T13:18:13.269Z,64.85
2023-08-30T13:23:17.185Z,65.25
2023-08-30T13:28:21.445Z,65.82
2023-08-30T13:33:25.688Z,66.02
2023-08-30T13:38:30.466Z,66.30
2023-08-30T13:43:34.724Z,66.85
2023-08-30T13:48:38.656Z,66.74
2023-08-30T13:53:42.665Z,66.99
2023-08-30T13:58:46.823Z,67.32
2023-08-30T14:03:50.994Z,67.61
2023-08-30T14:08:55.025Z,67.57
2023-08-30T14:13:59.008Z,68.08
2023-08-30T14:19:07.372Z,68.33
2023-08-30T14:24:11.618Z,68.57
2023-08-30T14:29:15.560Z,69.14
2023-08-30T14:34:22.180Z,69.19
2023-08-30T14:39:26.356Z,69.51
2023-08-30T14:44:30.452Z,69.69
2023-08-30T14:49:34.760Z,69.88
2023-08-30T14:54:41.493Z,70.25
2023-08-30T14:59:45.472Z,70.38
2023-08-30T15:04:49.581Z,71.04
2023-08-30T15:09:53.747Z,71.40
2023-08-30T15:14:58.104Z,71.93
2023-08-30T15:20:02.295Z,72.34
2023-08-30T15:25:08.441Z,72.56
2023-08-30T15:30:14.161Z,72.91
2023-08-30T15:35:18.445Z,73.38
2023-08-30T15:40:22.549Z,73.87
2023-08-30T15:45:26.606Z,74.41
2023-08-30T15:50:30.644Z,74.60
2023-08-30T15:55:35.303Z,74.92
2023-08-30T16:00:42.542Z,75.28
2023-08-30T16:05:46.924Z,75.32
2023-08-30T16:10:55.299Z,75.90
2023-08-30T16:15:59.404Z,76.07
2023-08-30T16:21:03.662Z,76.12
2023-08-30T16:26:07.622Z,76.53
2023-08-30T16:31:14.328Z,76.63
2023-08-30T16:36:18.347Z,76.89
2023-08-30T16:41:22.353Z,77.19
2023-08-30T16:46:26.413Z,77.17
2023-08-30T16:51:30.575Z,77.19
2023-08-30T16:56:34.647Z,77.38
2023-08-30T17:01:38.629Z,77.64
2023-08-30T17:06:42.916Z,77.63
2023-08-30T17:11:46.795Z,77.72
2023-08-30T17:16:51.706Z,77.90
2023-08-30T17:21:57.443Z,78.01
2023-08-30T17:27:05.124Z,78.29
2023-08-30T17:32:11.198Z,78.20
2023-08-30T17:37:15.577Z,78.23
2023-08-30T17:42:19.525Z,78.41
2023-08-30T17:47:23.667Z,78.62
2023-08-30T17:52:27.720Z,78.53
2023-08-30T17:57:34.223Z,78.55
2023-08-30T18:02:38.565Z,78.13
2023-08-30T18:07:43.182Z,78.55
2023-08-30T18:12:47.265Z,78.65
2023-08-30T18:17:52.457Z,78.79
2023-08-30T18:22:56.548Z,79.13
2023-08-30T18:28:00.653Z,78.90
2023-08-30T18:33:06.836Z,78.93
2023-08-30T18:38:10.956Z,79.06
2023-08-30T18:43:15.248Z,79.00
2023-08-30T18:48:19.088Z,79.22
2023-08-30T18:53:23.151Z,79.32
2023-08-30T18:58:27.383Z,79.33
2023-08-30T19:03:32.600Z,79.45
2023-08-30T19:08:36.996Z,79.27
2023-08-30T19:13:41.396Z,79.92
2023-08-30T19:18:49.146Z,79.62
2023-08-30T19:23:53.642Z,79.62
2023-08-30T19:28:58.386Z,79.90
2023-08-30T19:34:02.736Z,79.78
2023-08-30T19:39:08.720Z,79.57
2023-08-30T19:44:12.840Z,79.61
2023-08-30T19:49:17.680Z,79.70
2023-08-30T19:54:24.879Z,79.55
2023-08-30T19:59:28.945Z,79.74
2023-08-30T20:04:32.946Z,79.83
2023-08-30T20:09:38.488Z,79.77
2023-08-30T20:14:42.482Z,79.94
2023-08-30T20:19:46.515Z,79.83
2023-08-30T20:24:50.643Z,79.85
2023-08-30T20:29:54.680Z,79.86
2023-08-30T20:35:00.465Z,79.80
2023-08-30T20:40:04.970Z,79.84
2023-08-30T20:45:10.687Z,79.89
2023-08-30T20:50:14.979Z,79.81
2023-08-30T20:55:26.898Z,79.84
2023-08-30T21:00:39.719Z,79.74
2023-08-30T21:05:43.763Z,79.94
2023-08-30T21:10:49.506Z,80.10
2023-08-30T21:15:53.624Z,80.08
2023-08-30T21:21:01.600Z,80.25
2023-08-30T21:26:07.069Z,80.15
2023-08-30T21:31:11.047Z,80.35
2023-08-30T21:36:15.427Z,80.29
2023-08-30T21:41:21.576Z,80.48
2023-08-30T21:46:25.809Z,80.43
2023-08-30T21:51:36.470Z,80.63
2023-08-30T21:56:40.362Z,80.43
2023-08-30T22:01:44.825Z,80.40
2023-08-30T22:06:48.786Z,80.39
2023-08-30T22:11:52.894Z,80.42
2023-08-30T22:16:56.900Z,80.75
2023-08-30T22:22:01.211Z,80.77
2023-08-30T22:27:05.476Z,80.84
2023-08-30T22:32:09.413Z,80.82
2023-08-30T22:37:13.759Z,81.10
2023-08-30T22:42:17.757Z,80.83
2023-08-30T22:47:21.900Z,81.11
2023-08-30T22:52:25.882Z,81.22
2023-08-30T22:57:30.127Z,81.27
2023-08-30T23:02:35.567Z,81.46
2023-08-30T23:07:39.658Z,81.52
2023-08-30T23:12:44.158Z,81.54
2023-08-30T23:17:48.949Z,81.55
2023-08-30T23:22:53.397Z,81.38
2023-08-30T23:28:01.976Z,81.60
2023-08-30T23:33:06.522Z,81.70
2023-08-30T23:38:10.544Z,81.54
2023-08-30T23:43:14.860Z,81.62
2023-08-30T23:48:20.127Z,81.86
2023-08-30T23:53:24.189Z,81.77
2023-08-30T23:58:28.045Z,81.63
